sensor_id;sensor_type;location;lat;lon;timestamp;temperature;humidity
19544;DHT22;9917;51.256;7.152;2023-04-03T00:00:21;2.80;99.90
19544;DHT22;9917;51.256;7.152;2023-04-03T00:02:47;2.90;99.90
19544;DHT22;9917;51.256;7.152;2023-04-03T00:05:13;2.80;99.90
19544;DHT22;9917;51.256;7.152;2023-04-03T00:07:38;2.90;99.90
19544;DHT22;9917;51.256;7.152;2023-04-03T00:10:05;2.80;99.90
19544;DHT22;9917;51.256;7.152;2023-04-03T00:12:31;2.80;99.90
19544;DHT22;9917;51.256;7.152;2023-04-03T00:14:58;2.80;99.90
19544;DHT22;9917;51.256;7.152;2023-04-03T00:17:24;2.80;99.90
19544;DHT22;9917;51.256;7.152;2023-04-03T00:19:50;2.80;99.90
19544;DHT22;9917;51.256;7.152;2023-04-03T00:22:16;2.70;99.90
19544;DHT22;9917;51.256;7.152;2023-04-03T00:24:41;2.80;99.90
19544;DHT22;9917;51.256;7.152;2023-04-03T00:27:07;3.40;99.90
19544;DHT22;9917;51.256;7.152;2023-04-03T00:29:33;2.80;99.90
19544;DHT22;9917;51.256;7.152;2023-04-03T00:32:00;2.80;99.90
19544;DHT22;9917;51.256;7.152;2023-04-03T00:34:26;3.60;99.90
19544;DHT22;9917;51.256;7.152;2023-04-03T00:36:51;3.30;99.90
19544;DHT22;9917;51.256;7.152;2023-04-03T00:39:17;2.80;99.90
19544;DHT22;9917;51.256;7.152;2023-04-03T00:41:43;2.60;99.90
19544;DHT22;9917;51.256;7.152;2023-04-03T00:44:22;2.60;99.90
19544;DHT22;9917;51.256;7.152;2023-04-03T00:47:11;2.50;99.90
19544;DHT22;9917;51.256;7.152;2023-04-03T00:49:39;2.50;99.90
19544;DHT22;9917;51.256;7.152;2023-04-03T00:52:08;3.20;99.90
19544;DHT22;9917;51.256;7.152;2023-04-03T00:54:36;2.50;99.90
19544;DHT22;9917;51.256;7.152;2023-04-03T00:57:03;2.50;99.90
19544;DHT22;9917;51.256;7.152;2023-04-03T00:59:34;2.50;99.90
19544;DHT22;9917;51.256;7.152;2023-04-03T01:02:01;2.50;99.90
19544;DHT22;9917;51.256;7.152;2023-04-03T01:04:29;2.50;99.90
19544;DHT22;9917;51.256;7.152;2023-04-03T01:06:56;2.50;99.90
19544;DHT22;9917;51.256;7.152;2023-04-03T01:09:23;2.40;99.90
19544;DHT22;9917;51.256;7.152;2023-04-03T01:14:14;2.40;99.90
19544;DHT22;9917;51.256;7.152;2023-04-03T01:16:40;2.50;99.90
19544;DHT22;9917;51.256;7.152;2023-04-03T01:19:08;2.40;99.90
19544;DHT22;9917;51.256;7.152;2023-04-03T01:22:10;2.20;99.90
19544;DHT22;9917;51.256;7.152;2023-04-03T01:24:38;2.40;99.90
19544;DHT22;9917;51.256;7.152;2023-04-03T01:27:06;2.40;99.90
19544;DHT22;9917;51.256;7.152;2023-04-03T01:29:32;2.40;99.90
19544;DHT22;9917;51.256;7.152;2023-04-03T01:32:00;2.40;99.90
19544;DHT22;9917;51.256;7.152;2023-04-03T01:34:27;2.30;99.90
19544;DHT22;9917;51.256;7.152;2023-04-03T01:36:53;3.70;99.90
19544;DHT22;9917;51.256;7.152;2023-04-03T01:39:19;2.30;99.90
19544;DHT22;9917;51.256;7.152;2023-04-03T01:41:45;2.20;99.90
19544;DHT22;9917;51.256;7.152;2023-04-03T01:44:11;2.30;99.90
19544;DHT22;9917;51.256;7.152;2023-04-03T01:49:05;2.20;99.90
19544;DHT22;9917;51.256;7.152;2023-04-03T01:51:31;2.10;99.90
19544;DHT22;9917;51.256;7.152;2023-04-03T01:53:56;2.10;99.90
19544;DHT22;9917;51.256;7.152;2023-04-03T01:56:22;2.10;99.90
19544;DHT22;9917;51.256;7.152;2023-04-03T01:58:48;2.20;99.90
19544;DHT22;9917;51.256;7.152;2023-04-03T02:01:14;2.20;99.90
19544;DHT22;9917;51.256;7.152;2023-04-03T02:03:39;2.30;99.90
19544;DHT22;9917;51.256;7.152;2023-04-03T02:06:07;2.40;99.90
19544;DHT22;9917;51.256;7.152;2023-04-03T02:08:32;2.30;99.90
19544;DHT22;9917;51.256;7.152;2023-04-03T02:10:58;2.30;99.90
19544;DHT22;9917;51.256;7.152;2023-04-03T02:13:24;2.20;99.90
19544;DHT22;9917;51.256;7.152;2023-04-03T02:15:50;2.10;99.90
19544;DHT22;9917;51.256;7.152;2023-04-03T02:18:16;2.10;99.90
19544;DHT22;9917;51.256;7.152;2023-04-03T02:23:09;2.10;99.90
19544;DHT22;9917;51.256;7.152;2023-04-03T02:25:35;2.10;99.90
19544;DHT22;9917;51.256;7.152;2023-04-03T02:28:01;2.10;99.90
19544;DHT22;9917;51.256;7.152;2023-04-03T02:30:26;2.00;99.90
19544;DHT22;9917;51.256;7.152;2023-04-03T02:32:52;2.00;99.90
19544;DHT22;9917;51.256;7.152;2023-04-03T02:35:21;2.40;99.90
19544;DHT22;9917;51.256;7.152;2023-04-03T02:37:47;2.10;99.90
19544;DHT22;9917;51.256;7.152;2023-04-03T02:40:14;2.20;99.90
19544;DHT22;9917;51.256;7.152;2023-04-03T02:42:39;2.10;99.90
19544;DHT22;9917;51.256;7.152;2023-04-03T02:45:06;2.40;99.90
19544;DHT22;9917;51.256;7.152;2023-04-03T02:47:32;2.10;99.90
19544;DHT22;9917;51.256;7.152;2023-04-03T02:49:58;2.10;99.90
19544;DHT22;9917;51.256;7.152;2023-04-03T02:52:23;2.10;99.90
19544;DHT22;9917;51.256;7.152;2023-04-03T02:54:49;2.40;99.90
19544;DHT22;9917;51.256;7.152;2023-04-03T02:57:16;2.10;99.90
19544;DHT22;9917;51.256;7.152;2023-04-03T02:59:42;2.10;99.90
19544;DHT22;9917;51.256;7.152;2023-04-03T03:02:07;2.00;99.90
19544;DHT22;9917;51.256;7.152;2023-04-03T03:04:33;2.00;99.90
19544;DHT22;9917;51.256;7.152;2023-04-03T03:06:59;2.20;99.90
19544;DHT22;9917;51.256;7.152;2023-04-03T03:09:25;2.10;99.90
19544;DHT22;9917;51.256;7.152;2023-04-03T03:11:50;2.10;99.90
19544;DHT22;9917;51.256;7.152;2023-04-03T03:14:18;2.00;99.90
19544;DHT22;9917;51.256;7.152;2023-04-03T03:16:44;2.10;99.90
19544;DHT22;9917;51.256;7.152;2023-04-03T03:19:09;2.10;99.90
19544;DHT22;9917;51.256;7.152;2023-04-03T03:21:35;2.10;99.90
19544;DHT22;9917;51.256;7.152;2023-04-03T03:26:27;2.10;99.90
19544;DHT22;9917;51.256;7.152;2023-04-03T03:28:53;2.10;99.90
19544;DHT22;9917;51.256;7.152;2023-04-03T03:31:20;2.10;99.90
19544;DHT22;9917;51.256;7.152;2023-04-03T03:33:46;2.20;99.90
19544;DHT22;9917;51.256;7.152;2023-04-03T03:36:11;2.20;99.90
19544;DHT22;9917;51.256;7.152;2023-04-03T03:38:37;2.10;99.90
19544;DHT22;9917;51.256;7.152;2023-04-03T03:41:03;2.10;99.90
19544;DHT22;9917;51.256;7.152;2023-04-03T03:43:29;2.10;99.90
19544;DHT22;9917;51.256;7.152;2023-04-03T03:45:55;2.20;99.90
19544;DHT22;9917;51.256;7.152;2023-04-03T03:48:23;2.20;99.90
19544;DHT22;9917;51.256;7.152;2023-04-03T03:50:49;2.10;99.90
19544;DHT22;9917;51.256;7.152;2023-04-03T03:53:15;2.30;99.90
19544;DHT22;9917;51.256;7.152;2023-04-03T03:55:41;2.20;99.90
19544;DHT22;9917;51.256;7.152;2023-04-03T04:00:34;2.20;99.90
19544;DHT22;9917;51.256;7.152;2023-04-03T04:03:00;2.20;99.90
19544;DHT22;9917;51.256;7.152;2023-04-03T04:05:27;2.10;99.90
19544;DHT22;9917;51.256;7.152;2023-04-03T04:10:19;2.00;99.90
19544;DHT22;9917;51.256;7.152;2023-04-03T04:12:44;2.00;99.90
19544;DHT22;9917;51.256;7.152;2023-04-03T04:15:12;1.90;99.90
19544;DHT22;9917;51.256;7.152;2023-04-03T04:17:37;2.00;99.90
19544;DHT22;9917;51.256;7.152;2023-04-03T04:20:04;2.00;99.90
19544;DHT22;9917;51.256;7.152;2023-04-03T04:22:31;1.90;99.90
19544;DHT22;9917;51.256;7.152;2023-04-03T04:24:56;1.90;99.90
19544;DHT22;9917;51.256;7.152;2023-04-03T04:27:22;1.90;99.90
19544;DHT22;9917;51.256;7.152;2023-04-03T04:29:48;1.90;99.90
19544;DHT22;9917;51.256;7.152;2023-04-03T04:32:14;1.90;99.90
19544;DHT22;9917;51.256;7.152;2023-04-03T04:34:39;1.80;99.90
19544;DHT22;9917;51.256;7.152;2023-04-03T04:39:32;1.90;99.90
19544;DHT22;9917;51.256;7.152;2023-04-03T04:41:58;2.00;99.90
19544;DHT22;9917;51.256;7.152;2023-04-03T04:44:24;2.00;99.90
19544;DHT22;9917;51.256;7.152;2023-04-03T04:46:50;1.90;99.90
19544;DHT22;9917;51.256;7.152;2023-04-03T04:49:15;2.00;99.90
19544;DHT22;9917;51.256;7.152;2023-04-03T04:51:41;1.90;99.90
19544;DHT22;9917;51.256;7.152;2023-04-03T04:54:07;1.90;99.90
19544;DHT22;9917;51.256;7.152;2023-04-03T04:56:34;1.80;99.90
19544;DHT22;9917;51.256;7.152;2023-04-03T04:58:59;1.80;99.90
19544;DHT22;9917;51.256;7.152;2023-04-03T05:01:25;2.00;99.90
19544;DHT22;9917;51.256;7.152;2023-04-03T05:03:51;1.70;99.90
19544;DHT22;9917;51.256;7.152;2023-04-03T05:06:16;2.20;99.90
19544;DHT22;9917;51.256;7.152;2023-04-03T05:08:42;1.70;99.90
19544;DHT22;9917;51.256;7.152;2023-04-03T05:11:08;1.60;99.90
19544;DHT22;9917;51.256;7.152;2023-04-03T05:13:35;1.70;99.90
19544;DHT22;9917;51.256;7.152;2023-04-03T05:16:01;1.70;99.90
19544;DHT22;9917;51.256;7.152;2023-04-03T05:18:26;1.80;99.90
19544;DHT22;9917;51.256;7.152;2023-04-03T05:20:52;1.80;99.90
19544;DHT22;9917;51.256;7.152;2023-04-03T05:23:19;1.80;99.90
19544;DHT22;9917;51.256;7.152;2023-04-03T05:25:44;1.80;99.90
19544;DHT22;9917;51.256;7.152;2023-04-03T05:28:10;1.80;99.90
19544;DHT22;9917;51.256;7.152;2023-04-03T05:30:38;1.80;99.90
19544;DHT22;9917;51.256;7.152;2023-04-03T05:35:29;1.90;99.90
19544;DHT22;9917;51.256;7.152;2023-04-03T05:37:55;2.10;99.90
19544;DHT22;9917;51.256;7.152;2023-04-03T05:40:21;1.90;99.90
19544;DHT22;9917;51.256;7.152;2023-04-03T05:42:47;1.90;99.90
19544;DHT22;9917;51.256;7.152;2023-04-03T05:45:12;2.00;99.90
19544;DHT22;9917;51.256;7.152;2023-04-03T05:47:39;1.90;99.90
19544;DHT22;9917;51.256;7.152;2023-04-03T05:50:06;2.30;99.90
19544;DHT22;9917;51.256;7.152;2023-04-03T05:52:34;1.90;99.90
19544;DHT22;9917;51.256;7.152;2023-04-03T05:55:01;1.90;99.90
19544;DHT22;9917;51.256;7.152;2023-04-03T05:57:27;1.90;99.90
19544;DHT22;9917;51.256;7.152;2023-04-03T05:59:53;1.90;99.90
19544;DHT22;9917;51.256;7.152;2023-04-03T06:02:20;2.00;99.90
19544;DHT22;9917;51.256;7.152;2023-04-03T06:04:48;2.00;99.90
19544;DHT22;9917;51.256;7.152;2023-04-03T06:07:15;2.00;99.90
19544;DHT22;9917;51.256;7.152;2023-04-03T06:09:41;2.10;99.90
19544;DHT22;9917;51.256;7.152;2023-04-03T06:12:07;2.10;99.90
19544;DHT22;9917;51.256;7.152;2023-04-03T06:14:33;2.10;99.90
19544;DHT22;9917;51.256;7.152;2023-04-03T06:16:59;2.20;99.90
19544;DHT22;9917;51.256;7.152;2023-04-03T06:19:25;2.40;99.90
19544;DHT22;9917;51.256;7.152;2023-04-03T06:21:52;2.40;99.90
19544;DHT22;9917;51.256;7.152;2023-04-03T06:24:18;2.40;99.90
19544;DHT22;9917;51.256;7.152;2023-04-03T06:29:10;2.40;99.90
19544;DHT22;9917;51.256;7.152;2023-04-03T06:31:36;2.50;99.90
19544;DHT22;9917;51.256;7.152;2023-04-03T06:34:02;2.80;99.90
19544;DHT22;9917;51.256;7.152;2023-04-03T06:36:29;2.70;99.90
19544;DHT22;9917;51.256;7.152;2023-04-03T06:38:56;2.80;99.90
19544;DHT22;9917;51.256;7.152;2023-04-03T06:41:21;2.80;99.90
19544;DHT22;9917;51.256;7.152;2023-04-03T06:43:47;2.80;99.90
19544;DHT22;9917;51.256;7.152;2023-04-03T06:46:15;2.90;99.90
19544;DHT22;9917;51.256;7.152;2023-04-03T06:48:41;3.00;99.90
19544;DHT22;9917;51.256;7.152;2023-04-03T06:51:08;3.10;99.90
19544;DHT22;9917;51.256;7.152;2023-04-03T06:53:34;3.10;99.90
19544;DHT22;9917;51.256;7.152;2023-04-03T06:56:01;3.10;99.90
19544;DHT22;9917;51.256;7.152;2023-04-03T06:58:26;3.10;99.90
19544;DHT22;9917;51.256;7.152;2023-04-03T07:00:52;3.30;99.90
19544;DHT22;9917;51.256;7.152;2023-04-03T07:03:18;3.20;99.90
19544;DHT22;9917;51.256;7.152;2023-04-03T07:05:43;3.30;99.90
19544;DHT22;9917;51.256;7.152;2023-04-03T07:08:09;3.40;99.90
19544;DHT22;9917;51.256;7.152;2023-04-03T07:10:35;3.40;99.90
19544;DHT22;9917;51.256;7.152;2023-04-03T07:13:02;3.40;99.90
19544;DHT22;9917;51.256;7.152;2023-04-03T07:15:28;3.40;99.90
19544;DHT22;9917;51.256;7.152;2023-04-03T07:17:53;3.50;99.90
19544;DHT22;9917;51.256;7.152;2023-04-03T07:20:19;3.50;99.90
19544;DHT22;9917;51.256;7.152;2023-04-03T07:22:45;3.60;99.90
19544;DHT22;9917;51.256;7.152;2023-04-03T07:25:10;3.60;99.90
19544;DHT22;9917;51.256;7.152;2023-04-03T07:27:36;4.00;99.90
19544;DHT22;9917;51.256;7.152;2023-04-03T07:30:04;3.70;99.90
19544;DHT22;9917;51.256;7.152;2023-04-03T07:32:30;3.80;99.90
19544;DHT22;9917;51.256;7.152;2023-04-03T07:34:55;3.90;99.90
19544;DHT22;9917;51.256;7.152;2023-04-03T07:37:21;4.00;99.90
19544;DHT22;9917;51.256;7.152;2023-04-03T07:39:47;4.00;99.90
19544;DHT22;9917;51.256;7.152;2023-04-03T07:44:38;4.20;99.90
19544;DHT22;9917;51.256;7.152;2023-04-03T07:47:06;4.50;99.90
19544;DHT22;9917;51.256;7.152;2023-04-03T07:49:31;4.40;99.90
19544;DHT22;9917;51.256;7.152;2023-04-03T07:51:57;4.60;99.90
19544;DHT22;9917;51.256;7.152;2023-04-03T07:54:23;5.20;99.90
19544;DHT22;9917;51.256;7.152;2023-04-03T07:56:48;6.30;99.90
19544;DHT22;9917;51.256;7.152;2023-04-03T07:59:14;8.00;99.90
19544;DHT22;9917;51.256;7.152;2023-04-03T08:01:40;9.70;99.90
19544;DHT22;9917;51.256;7.152;2023-04-03T08:04:07;11.20;99.90
19544;DHT22;9917;51.256;7.152;2023-04-03T08:06:33;12.60;96.40
19544;DHT22;9917;51.256;7.152;2023-04-03T08:08:58;13.90;94.00
19544;DHT22;9917;51.256;7.152;2023-04-03T08:11:24;15.30;90.50
19544;DHT22;9917;51.256;7.152;2023-04-03T08:13:50;16.50;81.00
19544;DHT22;9917;51.256;7.152;2023-04-03T08:16:18;17.60;69.80
19544;DHT22;9917;51.256;7.152;2023-04-03T08:18:45;18.60;65.80
19544;DHT22;9917;51.256;7.152;2023-04-03T08:21:12;19.10;58.60
19544;DHT22;9917;51.256;7.152;2023-04-03T08:23:39;19.20;55.50
19544;DHT22;9917;51.256;7.152;2023-04-03T08:26:07;19.70;55.70
19544;DHT22;9917;51.256;7.152;2023-04-03T08:28:33;20.40;53.00
19544;DHT22;9917;51.256;7.152;2023-04-03T08:31:03;21.00;51.00
19544;DHT22;9917;51.256;7.152;2023-04-03T08:33:29;21.80;49.60
19544;DHT22;9917;51.256;7.152;2023-04-03T08:35:55;22.70;45.80
19544;DHT22;9917;51.256;7.152;2023-04-03T08:38:22;23.40;44.70
19544;DHT22;9917;51.256;7.152;2023-04-03T08:40:48;24.40;42.40
19544;DHT22;9917;51.256;7.152;2023-04-03T08:43:31;25.20;40.90
19544;DHT22;9917;51.256;7.152;2023-04-03T08:46:02;25.60;38.60
19544;DHT22;9917;51.256;7.152;2023-04-03T08:48:33;25.90;37.50
19544;DHT22;9917;51.256;7.152;2023-04-03T08:51:04;26.00;37.60
19544;DHT22;9917;51.256;7.152;2023-04-03T08:53:34;26.20;36.00
19544;DHT22;9917;51.256;7.152;2023-04-03T08:56:04;26.50;35.30
19544;DHT22;9917;51.256;7.152;2023-04-03T08:58:33;26.60;32.90
19544;DHT22;9917;51.256;7.152;2023-04-03T09:01:03;26.30;34.10
19544;DHT22;9917;51.256;7.152;2023-04-03T09:03:31;26.70;33.70
19544;DHT22;9917;51.256;7.152;2023-04-03T09:06:01;27.20;33.90
19544;DHT22;9917;51.256;7.152;2023-04-03T09:08:31;27.80;33.20
19544;DHT22;9917;51.256;7.152;2023-04-03T09:11:09;28.80;32.30
19544;DHT22;9917;51.256;7.152;2023-04-03T09:13:45;29.60;31.50
19544;DHT22;9917;51.256;7.152;2023-04-03T09:16:21;30.00;29.10
19544;DHT22;9917;51.256;7.152;2023-04-03T09:18:55;29.60;29.50
19544;DHT22;9917;51.256;7.152;2023-04-03T09:21:27;28.70;29.30
19544;DHT22;9917;51.256;7.152;2023-04-03T09:23:59;28.70;29.30
19544;DHT22;9917;51.256;7.152;2023-04-03T09:26:33;28.90;29.60
19544;DHT22;9917;51.256;7.152;2023-04-03T09:29:04;29.80;29.10
19544;DHT22;9917;51.256;7.152;2023-04-03T09:31:36;30.30;28.60
19544;DHT22;9917;51.256;7.152;2023-04-03T09:34:06;30.90;28.40
19544;DHT22;9917;51.256;7.152;2023-04-03T09:36:44;31.10;27.80
19544;DHT22;9917;51.256;7.152;2023-04-03T09:39:14;31.30;28.50
19544;DHT22;9917;51.256;7.152;2023-04-03T09:41:40;31.80;27.90
19544;DHT22;9917;51.256;7.152;2023-04-03T09:44:21;32.40;27.90
19544;DHT22;9917;51.256;7.152;2023-04-03T09:46:47;33.20;26.40
19544;DHT22;9917;51.256;7.152;2023-04-03T09:49:12;33.00;26.10
19544;DHT22;9917;51.256;7.152;2023-04-03T09:51:38;33.00;26.40
19544;DHT22;9917;51.256;7.152;2023-04-03T09:54:29;33.10;26.20
19544;DHT22;9917;51.256;7.152;2023-04-03T09:56:57;32.30;25.70
19544;DHT22;9917;51.256;7.152;2023-04-03T09:59:25;31.90;25.40
19544;DHT22;9917;51.256;7.152;2023-04-03T10:01:58;32.30;26.30
19544;DHT22;9917;51.256;7.152;2023-04-03T10:04:24;32.90;25.90
19544;DHT22;9917;51.256;7.152;2023-04-03T10:06:51;32.50;24.90
19544;DHT22;9917;51.256;7.152;2023-04-03T10:09:22;31.40;24.30
19544;DHT22;9917;51.256;7.152;2023-04-03T10:12:02;31.30;24.00
19544;DHT22;9917;51.256;7.152;2023-04-03T10:14:29;31.70;24.00
19544;DHT22;9917;51.256;7.152;2023-04-03T10:17:05;31.60;24.00
19544;DHT22;9917;51.256;7.152;2023-04-03T10:19:39;32.40;23.60
19544;DHT22;9917;51.256;7.152;2023-04-03T10:22:16;32.90;23.30
19544;DHT22;9917;51.256;7.152;2023-04-03T10:24:52;32.70;22.90
19544;DHT22;9917;51.256;7.152;2023-04-03T10:27:23;31.40;22.50
19544;DHT22;9917;51.256;7.152;2023-04-03T10:29:57;31.30;22.80
19544;DHT22;9917;51.256;7.152;2023-04-03T10:32:38;30.70;23.10
19544;DHT22;9917;51.256;7.152;2023-04-03T10:35:12;31.50;22.90
19544;DHT22;9917;51.256;7.152;2023-04-03T10:37:51;31.90;22.70
19544;DHT22;9917;51.256;7.152;2023-04-03T10:40:29;31.10;21.80
19544;DHT22;9917;51.256;7.152;2023-04-03T10:43:01;31.50;23.00
19544;DHT22;9917;51.256;7.152;2023-04-03T10:45:30;32.00;23.40
19544;DHT22;9917;51.256;7.152;2023-04-03T10:48:04;32.50;21.30
19544;DHT22;9917;51.256;7.152;2023-04-03T10:50:40;32.60;22.10
19544;DHT22;9917;51.256;7.152;2023-04-03T10:53:12;32.50;21.60
19544;DHT22;9917;51.256;7.152;2023-04-03T10:55:45;31.30;20.40
19544;DHT22;9917;51.256;7.152;2023-04-03T10:58:17;31.70;22.40
19544;DHT22;9917;51.256;7.152;2023-04-03T11:00:47;32.50;22.50
19544;DHT22;9917;51.256;7.152;2023-04-03T11:03:16;34.00;21.80
19544;DHT22;9917;51.256;7.152;2023-04-03T11:05:48;34.50;20.80
19544;DHT22;9917;51.256;7.152;2023-04-03T11:08:24;34.70;21.20
19544;DHT22;9917;51.256;7.152;2023-04-03T11:10:56;35.00;21.00
19544;DHT22;9917;51.256;7.152;2023-04-03T11:13:28;34.90;21.20
19544;DHT22;9917;51.256;7.152;2023-04-03T11:15:57;35.00;20.80
19544;DHT22;9917;51.256;7.152;2023-04-03T11:18:28;34.30;19.40
19544;DHT22;9917;51.256;7.152;2023-04-03T11:21:00;32.80;20.40
19544;DHT22;9917;51.256;7.152;2023-04-03T11:23:31;32.70;21.80
19544;DHT22;9917;51.256;7.152;2023-04-03T11:26:07;33.30;19.60
19544;DHT22;9917;51.256;7.152;2023-04-03T11:28:33;33.70;20.80
19544;DHT22;9917;51.256;7.152;2023-04-03T11:31:07;34.40;20.80
19544;DHT22;9917;51.256;7.152;2023-04-03T11:33:45;35.00;20.70
19544;DHT22;9917;51.256;7.152;2023-04-03T11:36:21;35.60;21.80
19544;DHT22;9917;51.256;7.152;2023-04-03T11:38:49;36.20;21.60
19544;DHT22;9917;51.256;7.152;2023-04-03T11:41:25;36.20;19.80
19544;DHT22;9917;51.256;7.152;2023-04-03T11:43:57;35.20;19.10
19544;DHT22;9917;51.256;7.152;2023-04-03T11:46:51;33.10;22.00
19544;DHT22;9917;51.256;7.152;2023-04-03T11:52:59;33.30;20.40
19544;DHT22;9917;51.256;7.152;2023-04-03T11:55:52;34.40;21.60
19544;DHT22;9917;51.256;7.152;2023-04-03T11:58:20;35.30;21.30
19544;DHT22;9917;51.256;7.152;2023-04-03T12:01:07;35.70;21.40
19544;DHT22;9917;51.256;7.152;2023-04-03T12:12:35;37.00;20.30
19544;DHT22;9917;51.256;7.152;2023-04-03T12:15:38;37.30;20.20
19544;DHT22;9917;51.256;7.152;2023-04-03T12:21:16;37.20;20.60
19544;DHT22;9917;51.256;7.152;2023-04-03T12:24:03;37.30;20.00
19544;DHT22;9917;51.256;7.152;2023-04-03T12:26:34;37.60;20.00
19544;DHT22;9917;51.256;7.152;2023-04-03T12:29:13;38.10;20.30
19544;DHT22;9917;51.256;7.152;2023-04-03T12:31:48;38.70;20.20
19544;DHT22;9917;51.256;7.152;2023-04-03T12:34:33;38.60;19.50
19544;DHT22;9917;51.256;7.152;2023-04-03T12:37:08;37.90;20.00
19544;DHT22;9917;51.256;7.152;2023-04-03T12:39:48;38.00;20.30
19544;DHT22;9917;51.256;7.152;2023-04-03T12:42:44;38.10;19.60
19544;DHT22;9917;51.256;7.152;2023-04-03T12:45:20;38.20;19.50
19544;DHT22;9917;51.256;7.152;2023-04-03T12:47:49;37.80;19.90
19544;DHT22;9917;51.256;7.152;2023-04-03T12:50:20;36.80;20.30
19544;DHT22;9917;51.256;7.152;2023-04-03T12:52:51;36.60;20.20
19544;DHT22;9917;51.256;7.152;2023-04-03T12:55:20;36.30;20.90
19544;DHT22;9917;51.256;7.152;2023-04-03T12:57:46;36.60;20.40
19544;DHT22;9917;51.256;7.152;2023-04-03T13:00:28;36.60;21.00
19544;DHT22;9917;51.256;7.152;2023-04-03T13:02:56;36.60;19.70
19544;DHT22;9917;51.256;7.152;2023-04-03T13:05:23;36.60;20.50
19544;DHT22;9917;51.256;7.152;2023-04-03T13:07:50;36.60;20.00
19544;DHT22;9917;51.256;7.152;2023-04-03T13:10:19;36.40;20.30
19544;DHT22;9917;51.256;7.152;2023-04-03T13:12:49;36.70;20.60
19544;DHT22;9917;51.256;7.152;2023-04-03T13:15:18;36.70;20.20
19544;DHT22;9917;51.256;7.152;2023-04-03T13:17:44;36.60;20.10
19544;DHT22;9917;51.256;7.152;2023-04-03T13:20:18;36.80;20.20
19544;DHT22;9917;51.256;7.152;2023-04-03T13:22:49;37.10;20.70
19544;DHT22;9917;51.256;7.152;2023-04-03T13:25:17;35.40;19.60
19544;DHT22;9917;51.256;7.152;2023-04-03T13:27:45;35.30;20.10
19544;DHT22;9917;51.256;7.152;2023-04-03T13:30:24;34.10;21.00
19544;DHT22;9917;51.256;7.152;2023-04-03T13:32:50;33.50;21.70
19544;DHT22;9917;51.256;7.152;2023-04-03T13:35:33;33.50;22.10
19544;DHT22;9917;51.256;7.152;2023-04-03T13:38:01;34.10;22.10
19544;DHT22;9917;51.256;7.152;2023-04-03T13:40:27;34.70;21.60
19544;DHT22;9917;51.256;7.152;2023-04-03T13:43:02;35.20;21.10
19544;DHT22;9917;51.256;7.152;2023-04-03T13:45:30;33.60;21.70
19544;DHT22;9917;51.256;7.152;2023-04-03T13:48:09;33.20;22.40
19544;DHT22;9917;51.256;7.152;2023-04-03T13:50:52;33.40;22.60
19544;DHT22;9917;51.256;7.152;2023-04-03T13:53:18;34.00;22.30
19544;DHT22;9917;51.256;7.152;2023-04-03T13:55:55;34.60;21.70
19544;DHT22;9917;51.256;7.152;2023-04-03T13:58:22;34.60;21.70
19544;DHT22;9917;51.256;7.152;2023-04-03T14:00:50;34.60;21.00
19544;DHT22;9917;51.256;7.152;2023-04-03T14:03:19;34.70;21.60
19544;DHT22;9917;51.256;7.152;2023-04-03T14:05:48;35.00;20.30
19544;DHT22;9917;51.256;7.152;2023-04-03T14:08:13;35.00;20.70
19544;DHT22;9917;51.256;7.152;2023-04-03T14:10:39;33.30;21.60
19544;DHT22;9917;51.256;7.152;2023-04-03T14:13:05;31.60;22.00
19544;DHT22;9917;51.256;7.152;2023-04-03T14:15:31;31.50;23.70
19544;DHT22;9917;51.256;7.152;2023-04-03T14:17:57;31.30;22.10
19544;DHT22;9917;51.256;7.152;2023-04-03T14:20:25;30.70;22.90
19544;DHT22;9917;51.256;7.152;2023-04-03T14:22:53;30.70;23.70
19544;DHT22;9917;51.256;7.152;2023-04-03T14:25:20;30.80;22.50
19544;DHT22;9917;51.256;7.152;2023-04-03T14:27:48;30.70;22.70
19544;DHT22;9917;51.256;7.152;2023-04-03T14:30:18;30.20;22.80
19544;DHT22;9917;51.256;7.152;2023-04-03T14:32:44;29.30;24.80
19544;DHT22;9917;51.256;7.152;2023-04-03T14:35:10;29.40;23.80
19544;DHT22;9917;51.256;7.152;2023-04-03T14:37:36;29.80;24.20
19544;DHT22;9917;51.256;7.152;2023-04-03T14:40:05;30.90;24.30
19544;DHT22;9917;51.256;7.152;2023-04-03T14:42:32;30.90;24.40
19544;DHT22;9917;51.256;7.152;2023-04-03T14:44:59;30.90;23.00
19544;DHT22;9917;51.256;7.152;2023-04-03T14:47:27;30.90;23.60
19544;DHT22;9917;51.256;7.152;2023-04-03T14:49:55;30.50;23.70
19544;DHT22;9917;51.256;7.152;2023-04-03T14:52:22;29.70;23.60
19544;DHT22;9917;51.256;7.152;2023-04-03T14:54:49;29.50;25.30
19544;DHT22;9917;51.256;7.152;2023-04-03T14:57:17;29.40;24.40
19544;DHT22;9917;51.256;7.152;2023-04-03T14:59:43;29.70;24.50
19544;DHT22;9917;51.256;7.152;2023-04-03T15:02:25;28.80;23.70
19544;DHT22;9917;51.256;7.152;2023-04-03T15:04:51;28.40;24.90
19544;DHT22;9917;51.256;7.152;2023-04-03T15:07:16;28.30;25.40
19544;DHT22;9917;51.256;7.152;2023-04-03T15:09:42;28.30;25.00
19544;DHT22;9917;51.256;7.152;2023-04-03T15:12:08;28.00;25.10
19544;DHT22;9917;51.256;7.152;2023-04-03T15:14:36;27.70;26.40
19544;DHT22;9917;51.256;7.152;2023-04-03T15:17:02;27.50;25.70
19544;DHT22;9917;51.256;7.152;2023-04-03T15:19:27;26.50;25.70
19544;DHT22;9917;51.256;7.152;2023-04-03T15:21:53;26.10;26.90
19544;DHT22;9917;51.256;7.152;2023-04-03T15:24:19;25.60;27.30
19544;DHT22;9917;51.256;7.152;2023-04-03T15:26:45;25.50;26.80
19544;DHT22;9917;51.256;7.152;2023-04-03T15:29:11;25.70;26.20
19544;DHT22;9917;51.256;7.152;2023-04-03T15:31:38;25.70;26.50
19544;DHT22;9917;51.256;7.152;2023-04-03T15:34:04;24.90;26.60
19544;DHT22;9917;51.256;7.152;2023-04-03T15:36:30;24.70;26.80
19544;DHT22;9917;51.256;7.152;2023-04-03T15:38:55;23.10;27.50
19544;DHT22;9917;51.256;7.152;2023-04-03T15:41:21;23.00;27.90
19544;DHT22;9917;51.256;7.152;2023-04-03T15:43:47;22.60;28.40
19544;DHT22;9917;51.256;7.152;2023-04-03T15:46:13;22.20;29.10
19544;DHT22;9917;51.256;7.152;2023-04-03T15:48:40;20.80;30.40
19544;DHT22;9917;51.256;7.152;2023-04-03T15:51:06;20.70;30.00
19544;DHT22;9917;51.256;7.152;2023-04-03T15:55:57;20.30;31.30
19544;DHT22;9917;51.256;7.152;2023-04-03T15:58:23;19.80;32.50
19544;DHT22;9917;51.256;7.152;2023-04-03T16:00:49;19.10;32.60
19544;DHT22;9917;51.256;7.152;2023-04-03T16:03:16;19.00;33.20
19544;DHT22;9917;51.256;7.152;2023-04-03T16:05:44;18.80;34.50
19544;DHT22;9917;51.256;7.152;2023-04-03T16:08:10;18.60;35.20
19544;DHT22;9917;51.256;7.152;2023-04-03T16:10:36;18.30;36.10
19544;DHT22;9917;51.256;7.152;2023-04-03T16:13:03;17.70;35.70
19544;DHT22;9917;51.256;7.152;2023-04-03T16:15:29;17.30;35.80
19544;DHT22;9917;51.256;7.152;2023-04-03T16:17:55;17.00;37.60
19544;DHT22;9917;51.256;7.152;2023-04-03T16:20:21;16.60;36.50
19544;DHT22;9917;51.256;7.152;2023-04-03T16:22:48;16.30;38.20
19544;DHT22;9917;51.256;7.152;2023-04-03T16:25:14;15.70;38.80
19544;DHT22;9917;51.256;7.152;2023-04-03T16:27:40;15.10;38.90
19544;DHT22;9917;51.256;7.152;2023-04-03T16:30:07;15.00;40.50
19544;DHT22;9917;51.256;7.152;2023-04-03T16:32:34;14.50;39.90
19544;DHT22;9917;51.256;7.152;2023-04-03T16:35:00;14.50;40.90
19544;DHT22;9917;51.256;7.152;2023-04-03T16:37:25;14.30;42.50
19544;DHT22;9917;51.256;7.152;2023-04-03T16:39:53;14.20;41.30
19544;DHT22;9917;51.256;7.152;2023-04-03T16:42:18;14.10;41.90
19544;DHT22;9917;51.256;7.152;2023-04-03T16:44:44;14.10;42.70